Time;durP1;ratioP1;P1;durP2;ratioP2;P2;SDS_P1;SDS_P2;PMS_P1;PMS_P2;Temp;Humidity;BMP_temperature;BMP_pressure;BME280_temperature;BME280_humidity;BME280_pressure;Samples;Min_cycle;Max_cycle;Signal;HPM_P1;HPM_P2
2022/05/16 00:01:34;;;;;;;2.75;1.75;;;12.70;99.90;;;;;;5047056;28;20041;-36
2022/05/16 00:04:00;;;;;;;2.45;1.73;;;12.70;99.70;;;;;;5047527;28;20025;-37
2022/05/16 00:06:25;;;;;;;3.17;2.00;;;12.70;99.70;;;;;;5047704;28;20036;-36
2022/05/16 00:08:51;;;;;;;3.13;1.63;;;12.60;99.40;;;;;;5052131;28;20225;-36
2022/05/16 00:11:18;;;;;;;3.20;1.92;;;12.60;99.20;;;;;;5065646;28;20028;-36
2022/05/16 00:13:43;;;;;;;2.83;1.98;;;12.60;99.80;;;;;;5053092;28;20025;-37
2022/05/16 00:16:09;;;;;;;5.72;1.90;;;12.60;99.40;;;;;;5046980;28;20025;-36
2022/05/16 00:18:34;;;;;;;3.42;1.70;;;12.50;99.50;;;;;;5053835;28;20043;-36
2022/05/16 00:21:00;;;;;;;2.30;1.85;;;12.50;99.90;;;;;;5067098;28;20036;-36
2022/05/16 00:23:26;;;;;;;4.38;1.90;;;12.50;99.40;;;;;;5046326;28;20035;-36
2022/05/16 00:25:51;;;;;;;5.18;2.63;;;12.50;99.10;;;;;;5047401;28;20021;-36
2022/05/16 00:28:16;;;;;;;3.50;2.22;;;12.50;99.30;;;;;;5047199;28;20090;-36
2022/05/16 00:30:42;;;;;;;2.78;1.90;;;12.50;99.60;;;;;;5047683;28;20020;-36
2022/05/16 00:33:07;;;;;;;2.72;1.70;;;12.50;99.90;;;;;;5054600;28;20028;-36
2022/05/16 00:35:33;;;;;;;3.03;1.65;;;12.40;99.90;;;;;;5069500;28;20431;-36
2022/05/16 00:37:59;;;;;;;3.13;2.10;;;12.30;99.90;;;;;;5071133;28;20440;-36
2022/05/16 00:40:24;;;;;;;4.68;2.03;;;12.30;99.90;;;;;;5070664;28;20331;-36
2022/05/16 00:42:50;;;;;;;1.75;1.50;;;12.20;99.90;;;;;;5070505;28;20028;-36
2022/05/16 00:45:17;;;;;;;3.58;1.90;;;12.20;99.90;;;;;;5070645;28;20028;-36
2022/05/16 00:47:43;;;;;;;4.72;2.13;;;12.20;99.90;;;;;;5067224;28;20482;-38
2022/05/16 00:50:10;;;;;;;4.22;1.95;;;12.20;99.90;;;;;;5075223;28;20036;-36
2022/05/16 00:52:39;;;;;;;3.35;1.92;;;12.20;99.90;;;;;;5050232;28;20457;-41
2022/05/16 00:55:16;;;;;;;3.25;1.98;;;12.10;99.90;;;;;;5073468;28;20016;-36
2022/05/16 00:57:48;;;;;;;3.53;1.98;;;12.10;99.90;;;;;;5076254;28;20020;-37
2022/05/16 01:00:27;;;;;;;3.90;1.90;;;12.10;99.90;;;;;;5091223;28;20063;-37
2022/05/16 01:05:40;;;;;;;5.15;2.45;;;12.10;99.90;;;;;;5088006;28;20583;-36
2022/05/16 01:08:09;;;;;;;3.05;2.00;;;12.10;99.90;;;;;;5053786;28;20037;-36
2022/05/16 01:10:35;;;;;;;2.67;1.70;;;12.10;99.90;;;;;;5069639;28;20612;-37
2022/05/16 01:13:03;;;;;;;2.92;2.00;;;12.10;99.90;;;;;;5059731;28;20025;-37
2022/05/16 01:15:36;;;;;;;2.58;2.00;;;12.10;99.90;;;;;;5050122;28;20021;-37
2022/05/16 01:18:04;;;;;;;5.60;2.50;;;12.00;99.90;;;;;;5050021;28;20048;-37
2022/05/16 01:21:01;;;;;;;3.45;2.15;;;12.00;99.90;;;;;;5049947;28;20035;-37
2022/05/16 01:23:30;;;;;;;2.80;2.00;;;11.90;99.90;;;;;;5063981;28;20027;-37
2022/05/16 01:25:56;;;;;;;5.65;2.05;;;11.80;99.90;;;;;;5073966;28;20035;-37
2022/05/16 01:28:24;;;;;;;6.68;2.05;;;11.80;99.90;;;;;;5084987;28;20032;-37
2022/05/16 01:30:51;;;;;;;3.65;2.05;;;11.80;99.90;;;;;;5069514;28;20032;-37
2022/05/16 01:33:19;;;;;;;2.85;2.20;;;11.80;99.90;;;;;;5068862;28;20105;-37
2022/05/16 01:35:45;;;;;;;4.43;2.42;;;11.70;99.90;;;;;;5069665;28;20025;-37
2022/05/16 01:38:23;;;;;;;5.20;1.95;;;11.70;99.90;;;;;;5069369;28;20095;-37
2022/05/16 01:40:59;;;;;;;4.38;2.30;;;11.70;99.90;;;;;;5069650;28;20229;-37
2022/05/16 01:43:28;;;;;;;4.70;2.38;;;11.70;99.90;;;;;;5068913;28;20324;-37
2022/05/16 01:45:54;;;;;;;6.20;2.20;;;11.60;99.90;;;;;;5069064;28;20118;-37
2022/05/16 01:48:20;;;;;;;3.67;2.75;;;11.60;99.90;;;;;;5069457;28;20521;-37
2022/05/16 01:50:47;;;;;;;4.35;1.95;;;11.60;99.90;;;;;;5069868;28;20016;-37
2022/05/16 01:53:13;;;;;;;4.55;2.38;;;11.60;99.90;;;;;;5068163;28;20075;-37
2022/05/16 01:55:39;;;;;;;3.03;2.13;;;11.50;99.90;;;;;;5073672;28;20024;-37
2022/05/16 01:58:05;;;;;;;3.50;2.05;;;11.50;99.90;;;;;;5073842;28;20518;-37
2022/05/16 02:00:31;;;;;;;3.55;2.47;;;11.50;99.90;;;;;;5068755;28;20028;-37
2022/05/16 02:02:57;;;;;;;5.22;2.20;;;11.50;99.90;;;;;;5063134;28;20028;-37
2022/05/16 02:05:24;;;;;;;4.90;2.22;;;11.50;99.90;;;;;;5059659;28;20021;-37
2022/05/16 02:07:50;;;;;;;3.20;2.20;;;11.50;99.90;;;;;;5063358;28;20107;-37
2022/05/16 02:10:18;;;;;;;4.00;2.30;;;11.50;99.90;;;;;;5065239;28;20509;-37
2022/05/16 02:12:44;;;;;;;5.07;2.20;;;11.50;99.90;;;;;;5056715;28;20020;-37
2022/05/16 02:15:31;;;;;;;9.48;2.72;;;11.40;99.90;;;;;;5052447;28;20055;-37
2022/05/16 02:17:57;;;;;;;3.40;2.10;;;11.40;99.90;;;;;;5046221;28;20032;-37
2022/05/16 02:20:23;;;;;;;3.75;2.40;;;11.40;99.90;;;;;;5056349;28;20020;-37
2022/05/16 02:25:37;;;;;;;4.78;2.63;;;11.30;99.90;;;;;;5073555;28;20070;-37
2022/05/16 02:28:03;;;;;;;5.68;2.53;;;11.30;99.90;;;;;;5066629;28;20049;-37
2022/05/16 02:30:29;;;;;;;2.90;1.98;;;11.20;99.90;;;;;;5057221;28;20382;-37
2022/05/16 02:32:55;;;;;;;5.50;2.83;;;11.20;99.90;;;;;;5056868;28;20202;-36
2022/05/16 02:35:21;;;;;;;5.72;2.30;;;11.20;99.90;;;;;;5058348;28;20640;-36
2022/05/16 02:37:47;;;;;;;5.28;2.50;;;11.10;99.90;;;;;;5059713;28;20115;-37
2022/05/16 02:40:12;;;;;;;2.97;2.50;;;11.10;99.90;;;;;;5058171;28;20048;-37
2022/05/16 02:42:38;;;;;;;7.05;2.47;;;11.10;99.90;;;;;;5057982;28;20048;-37
2022/05/16 02:45:05;;;;;;;4.65;2.88;;;11.00;99.90;;;;;;5059595;28;20017;-37
2022/05/16 02:47:30;;;;;;;4.88;2.50;;;11.00;99.90;;;;;;5057616;28;20021;-45
2022/05/16 02:49:56;;;;;;;6.78;2.40;;;11.00;99.90;;;;;;5057616;28;20051;-45
2022/05/16 02:52:21;;;;;;;4.32;2.67;;;10.90;99.90;;;;;;5059433;28;20062;-44
2022/05/16 02:54:47;;;;;;;4.30;2.60;;;10.90;99.90;;;;;;5066723;28;20382;-44
2022/05/16 02:57:13;;;;;;;6.63;2.97;;;10.90;99.90;;;;;;5063657;28;20021;-44
2022/05/16 02:59:39;;;;;;;4.10;2.97;;;10.90;99.90;;;;;;5060300;28;20029;-44
2022/05/16 03:02:07;;;;;;;5.97;2.80;;;10.80;99.90;;;;;;5058627;28;20035;-44
2022/05/16 03:04:33;;;;;;;6.55;2.97;;;10.80;99.90;;;;;;5058058;28;20031;-44
2022/05/16 03:06:59;;;;;;;3.10;2.30;;;10.80;99.90;;;;;;5057940;28;20099;-44
2022/05/16 03:09:26;;;;;;;5.13;3.15;;;10.80;99.90;;;;;;5057505;28;20353;-44
2022/05/16 03:11:52;;;;;;;3.58;2.75;;;10.70;99.90;;;;;;5057224;28;20029;-44
2022/05/16 03:14:18;;;;;;;3.88;2.63;;;10.70;99.90;;;;;;5060099;28;20165;-44
2022/05/16 03:16:44;;;;;;;3.30;2.17;;;10.60;99.90;;;;;;5068159;28;20025;-44
2022/05/16 03:19:10;;;;;;;4.55;2.72;;;10.60;99.90;;;;;;5068495;28;20036;-44
2022/05/16 03:21:35;;;;;;;4.22;2.90;;;10.50;99.90;;;;;;5067341;28;20367;-44
2022/05/16 03:24:02;;;;;;;5.50;2.75;;;10.50;99.90;;;;;;5050405;28;20040;-44
2022/05/16 03:26:27;;;;;;;3.22;2.30;;;10.50;99.90;;;;;;5084042;28;20028;-44
2022/05/16 03:28:53;;;;;;;3.78;2.35;;;10.50;99.90;;;;;;5068074;28;20029;-44
2022/05/16 03:31:19;;;;;;;7.18;2.90;;;10.40;99.90;;;;;;5067741;28;20150;-47
2022/05/16 03:33:45;;;;;;;5.40;3.15;;;10.40;99.90;;;;;;5066619;28;20021;-44
2022/05/16 03:36:11;;;;;;;6.80;3.13;;;10.40;99.90;;;;;;5068377;28;20024;-44
2022/05/16 03:41:22;;;;;;;3.55;2.75;;;10.40;99.90;;;;;;5048644;28;20406;-45
2022/05/16 03:43:47;;;;;;;6.40;3.15;;;10.40;99.90;;;;;;5047155;28;20387;-44
2022/05/16 03:46:13;;;;;;;5.50;2.58;;;10.40;99.90;;;;;;5048162;28;20109;-45
2022/05/16 03:48:39;;;;;;;5.90;3.33;;;10.40;99.90;;;;;;5048252;28;20056;-44
2022/05/16 03:51:09;;;;;;;5.63;3.03;;;10.40;99.90;;;;;;5048182;28;20016;-44
2022/05/16 03:53:47;;;;;;;3.75;2.85;;;10.40;99.90;;;;;;5047721;28;20025;-44
2022/05/16 03:56:18;;;;;;;4.20;3.22;;;10.40;99.90;;;;;;5074114;28;20024;-46
2022/05/16 03:58:44;;;;;;;4.95;3.05;;;10.30;99.90;;;;;;5088177;28;20024;-37
2022/05/16 04:01:09;;;;;;;5.78;3.80;;;10.40;99.90;;;;;;5088274;28;20051;-37
2022/05/16 04:03:35;;;;;;;6.72;3.10;;;10.40;99.90;;;;;;5087691;28;20152;-37
2022/05/16 04:06:02;;;;;;;3.28;2.72;;;10.40;99.90;;;;;;5082894;28;20031;-37
2022/05/16 04:08:28;;;;;;;8.88;3.08;;;10.50;99.90;;;;;;5067471;28;20089;-37
2022/05/16 04:10:55;;;;;;;4.53;2.92;;;10.50;99.90;;;;;;5060871;28;20040;-37
2022/05/16 04:13:20;;;;;;;4.03;3.10;;;10.50;99.90;;;;;;5050737;28;20393;-37
2022/05/16 04:15:46;;;;;;;6.60;3.00;;;10.50;99.90;;;;;;5057812;28;20115;-38
2022/05/16 04:18:11;;;;;;;5.68;2.85;;;10.50;99.90;;;;;;5078926;28;20026;-38
2022/05/16 04:20:37;;;;;;;6.13;3.25;;;10.60;99.90;;;;;;5082740;28;20105;-38
2022/05/16 04:23:02;;;;;;;5.15;3.45;;;10.60;99.90;;;;;;5066976;28;20492;-38
2022/05/16 04:25:28;;;;;;;7.07;3.28;;;10.60;99.90;;;;;;5063798;28;20398;-38
2022/05/16 04:27:54;;;;;;;5.90;3.42;;;10.60;99.90;;;;;;5050335;28;20024;-38
2022/05/16 04:30:20;;;;;;;6.00;3.75;;;10.70;99.90;;;;;;5064934;28;20028;-37
2022/05/16 04:32:45;;;;;;;6.95;3.70;;;10.70;99.90;;;;;;5045412;28;20029;-37
2022/05/16 04:35:11;;;;;;;10.32;3.67;;;10.70;99.90;;;;;;5061095;28;20069;-37
2022/05/16 04:37:56;;;;;;;6.90;3.72;;;10.70;99.90;;;;;;5058408;28;20055;-38
2022/05/16 04:40:23;;;;;;;7.13;3.35;;;10.70;99.90;;;;;;5062368;28;20542;-37
2022/05/16 04:42:48;;;;;;;4.95;3.33;;;10.70;99.90;;;;;;5063377;28;20029;-37
2022/05/16 04:45:23;;;;;;;6.38;3.85;;;10.70;99.90;;;;;;5057385;28;20036;-37
2022/05/16 04:47:51;;;;;;;7.13;4.18;;;10.80;99.90;;;;;;5076230;28;20493;-37
2022/05/16 04:50:20;;;;;;;6.70;3.47;;;10.80;99.90;;;;;;5086200;28;20610;-36
2022/05/16 04:52:46;;;;;;;11.95;3.95;;;10.90;99.90;;;;;;5051822;28;20029;-37
2022/05/16 04:55:12;;;;;;;10.85;3.80;;;10.90;99.90;;;;;;5062202;28;20118;-36
2022/05/16 04:57:38;;;;;;;10.38;3.85;;;10.90;99.90;;;;;;5073851;28;20663;-37
2022/05/16 05:00:05;;;;;;;6.03;3.95;;;10.90;99.90;;;;;;5063900;28;20021;-36
2022/05/16 05:02:30;;;;;;;8.70;3.78;;;11.00;99.90;;;;;;5045155;28;20025;-37
2022/05/16 05:04:56;;;;;;;7.40;4.03;;;11.10;99.90;;;;;;5066825;28;20531;-37
2022/05/16 05:07:22;;;;;;;7.10;3.45;;;11.10;99.90;;;;;;5079172;28;20016;-37
2022/05/16 05:15:17;;;;;;;7.72;4.15;;;11.30;99.90;;;;;;5057162;28;20043;-37
2022/05/16 05:17:43;;;;;;;12.93;4.90;;;11.30;99.90;;;;;;5058360;28;20025;-44
2022/05/16 05:20:13;;;;;;;12.95;5.25;;;11.40;99.90;;;;;;5058047;28;20017;-44
2022/05/16 05:22:59;;;;;;;12.63;4.47;;;11.50;99.90;;;;;;5053369;28;20549;-44
2022/05/16 05:25:24;;;;;;;14.25;4.63;;;11.60;99.90;;;;;;5073056;28;20176;-44
2022/05/16 05:27:50;;;;;;;10.50;4.90;;;11.70;99.90;;;;;;5084449;28;20067;-45
2022/05/16 05:30:19;;;;;;;10.38;4.72;;;11.70;99.90;;;;;;5090862;28;20093;-45
2022/05/16 05:32:45;;;;;;;6.57;4.30;;;11.80;99.90;;;;;;5074250;28;20028;-44
2022/05/16 05:35:11;;;;;;;7.13;3.83;;;11.80;99.90;;;;;;5074992;28;20427;-44
2022/05/16 05:37:37;;;;;;;9.80;4.47;;;11.90;99.90;;;;;;5071872;28;20032;-45
2022/05/16 05:40:04;;;;;;;12.95;5.72;;;12.00;99.90;;;;;;5067106;28;20386;-44
2022/05/16 05:42:31;;;;;;;27.42;5.15;;;12.10;99.90;;;;;;5066249;28;20028;-44
2022/05/16 05:44:58;;;;;;;9.82;4.53;;;12.20;99.90;;;;;;5080536;28;20421;-44
2022/05/16 05:47:24;;;;;;;6.30;4.57;;;12.30;99.90;;;;;;5072052;28;20016;-44
2022/05/16 05:49:50;;;;;;;8.45;4.43;;;12.40;99.90;;;;;;5083135;28;20390;-43
2022/05/16 05:52:16;;;;;;;12.13;4.72;;;12.50;99.90;;;;;;5083581;28;20025;-44
2022/05/16 05:54:42;;;;;;;7.55;3.97;;;12.60;99.90;;;;;;5052986;28;20029;-45
2022/05/16 05:57:08;;;;;;;16.02;4.50;;;12.70;99.90;;;;;;5055316;28;20416;-45
2022/05/16 05:59:33;;;;;;;12.57;4.05;;;12.90;99.90;;;;;;5065180;28;20025;-43
2022/05/16 06:01:59;;;;;;;12.00;4.15;;;13.10;99.90;;;;;;5071270;28;20029;-44
2022/05/16 06:04:25;;;;;;;7.30;4.20;;;13.20;99.90;;;;;;5075123;28;20029;-43
2022/05/16 06:06:51;;;;;;;8.63;3.85;;;13.30;99.90;;;;;;5078534;28;20397;-44
2022/05/16 06:09:16;;;;;;;7.60;3.70;;;13.40;99.90;;;;;;5063809;28;20037;-43
2022/05/16 06:11:42;;;;;;;6.20;3.55;;;13.60;99.90;;;;;;5064539;28;20036;-43
2022/05/16 06:14:08;;;;;;;7.35;4.03;;;13.70;99.90;;;;;;5077808;28;20100;-44
2022/05/16 06:16:33;;;;;;;9.68;4.75;;;13.80;99.90;;;;;;5073259;28;20022;-45
2022/05/16 06:18:59;;;;;;;6.90;3.45;;;13.80;99.90;;;;;;5071996;28;20029;-45
2022/05/16 06:21:24;;;;;;;7.13;3.95;;;13.90;99.90;;;;;;5074025;28;20102;-44
2022/05/16 06:23:50;;;;;;;10.65;4.55;;;13.80;99.90;;;;;;5077790;28;20039;-44
2022/05/16 06:26:16;;;;;;;11.18;4.70;;;13.90;99.90;;;;;;5082421;28;20081;-44
2022/05/16 06:28:41;;;;;;;6.75;4.13;;;14.00;99.90;;;;;;5085130;28;20043;-43
2022/05/16 06:31:07;;;;;;;5.75;3.22;;;14.10;99.90;;;;;;5092407;28;20034;-43
2022/05/16 06:33:33;;;;;;;10.80;4.20;;;14.20;99.90;;;;;;5085783;28;20098;-44
2022/05/16 06:36:00;;;;;;;4.60;3.70;;;14.20;99.90;;;;;;5073556;28;20024;-44
2022/05/16 06:38:29;;;;;;;8.75;3.92;;;14.40;99.90;;;;;;5084084;28;20023;-44
2022/05/16 06:40:56;;;;;;;7.88;3.85;;;14.50;99.90;;;;;;5072973;28;20108;-44
2022/05/16 06:43:24;;;;;;;8.85;3.75;;;14.60;99.90;;;;;;5062779;28;20046;-44
2022/05/16 06:45:50;;;;;;;5.10;3.45;;;14.70;99.90;;;;;;5071855;28;20466;-45
2022/05/16 06:48:17;;;;;;;5.95;3.72;;;14.80;99.90;;;;;;5077255;28;20028;-45
2022/05/16 06:50:44;;;;;;;6.15;3.72;;;15.00;99.90;;;;;;5084797;28;20016;-45
2022/05/16 06:53:19;;;;;;;12.32;3.60;;;15.00;99.90;;;;;;5091812;28;20043;-44
2022/05/16 06:55:44;;;;;;;8.50;3.58;;;15.30;99.90;;;;;;5086708;28;20032;-45
2022/05/16 06:58:10;;;;;;;7.55;3.17;;;15.40;99.90;;;;;;5083757;28;20024;-45
2022/05/16 07:00:36;;;;;;;6.47;3.55;;;15.60;99.90;;;;;;5083961;28;20024;-45
2022/05/16 07:03:02;;;;;;;9.02;3.35;;;15.70;99.90;;;;;;5091488;28;20099;-45
2022/05/16 07:05:28;;;;;;;6.85;2.92;;;15.90;99.90;;;;;;5092151;28;20053;-44
2022/05/16 07:07:55;;;;;;;10.40;3.30;;;16.00;99.40;;;;;;5086353;28;20040;-45
2022/05/16 07:10:21;;;;;;;10.68;3.30;;;16.20;98.50;;;;;;5078562;28;20028;-45
2022/05/16 07:12:46;;;;;;;6.53;2.70;;;16.30;98.50;;;;;;5081507;28;20012;-45
2022/05/16 07:15:13;;;;;;;6.43;2.95;;;16.50;98.10;;;;;;5079111;28;20028;-45
2022/05/16 07:17:39;;;;;;;9.05;3.10;;;16.60;97.30;;;;;;5078635;28;20032;-45
2022/05/16 07:20:05;;;;;;;10.73;3.45;;;16.80;96.20;;;;;;5078378;28;20031;-45
2022/05/16 07:22:30;;;;;;;6.70;2.60;;;16.90;96.30;;;;;;5089432;28;20020;-45
2022/05/16 07:24:58;;;;;;;4.38;2.30;;;17.10;95.40;;;;;;5091657;28;20595;-46
2022/05/16 07:30:09;;;;;;;7.45;3.28;;;17.50;94.50;;;;;;5082284;28;20035;-45
2022/05/16 07:32:43;;;;;;;8.45;2.75;;;17.70;94.20;;;;;;5078334;28;20028;-45
2022/05/16 07:35:12;;;;;;;7.22;2.80;;;17.90;93.60;;;;;;5078619;28;20031;-45
2022/05/16 07:37:37;;;;;;;6.63;2.75;;;18.00;93.20;;;;;;5068759;28;20095;-45
2022/05/16 07:40:07;;;;;;;7.75;2.30;;;18.30;93.50;;;;;;5077191;28;20478;-46
2022/05/16 07:42:32;;;;;;;8.80;2.97;;;18.50;92.10;;;;;;5077312;28;20083;-43
2022/05/16 07:45:00;;;;;;;8.40;3.00;;;18.80;91.10;;;;;;5076600;28;20473;-44
2022/05/16 07:47:25;;;;;;;7.00;2.88;;;19.10;90.60;;;;;;5079279;28;20025;-44
2022/05/16 07:49:51;;;;;;;8.43;2.72;;;19.30;90.10;;;;;;5090430;28;20028;-45
2022/05/16 07:52:16;;;;;;;6.63;3.03;;;19.70;87.90;;;;;;5071438;28;20474;-43
2022/05/16 07:54:42;;;;;;;6.22;2.92;;;20.20;86.70;;;;;;5081350;28;20031;-43
2022/05/16 07:57:08;;;;;;;5.00;2.47;;;20.60;84.60;;;;;;5074225;28;20645;-43
2022/05/16 07:59:33;;;;;;;5.32;2.58;;;21.10;81.20;;;;;;5070868;28;20036;-44
2022/05/16 08:01:59;;;;;;;9.18;3.30;;;21.30;79.30;;;;;;5063334;28;20029;-45
2022/05/16 08:04:24;;;;;;;6.20;2.75;;;21.60;79.40;;;;;;5077512;28;20074;-43
2022/05/16 08:06:50;;;;;;;6.80;3.03;;;21.90;77.00;;;;;;5073117;28;20025;-47
2022/05/16 08:11:59;;;;;;;5.22;2.53;;;22.30;76.90;;;;;;5080583;28;20047;-47
2022/05/16 08:14:25;;;;;;;6.10;2.78;;;22.70;73.50;;;;;;5056740;28;20668;-44
2022/05/16 08:16:51;;;;;;;5.00;2.30;;;22.90;71.60;;;;;;5050547;28;20097;-43
2022/05/16 08:19:16;;;;;;;5.80;2.83;;;23.20;70.90;;;;;;5050523;28;20028;-44
2022/05/16 08:21:42;;;;;;;8.82;2.88;;;23.40;73.00;;;;;;5049909;28;20036;-44
2022/05/16 08:24:11;;;;;;;8.23;3.40;;;24.20;68.10;;;;;;5064986;28;20069;-44
2022/05/16 08:26:37;;;;;;;6.05;2.10;;;25.40;65.40;;;;;;5076578;28;20055;-44
2022/05/16 08:29:03;;;;;;;3.88;2.53;;;26.50;62.40;;;;;;5070233;28;20048;-47
2022/05/16 08:31:30;;;;;;;4.60;2.40;;;27.10;59.10;;;;;;5069646;28;20048;-45
2022/05/16 08:33:56;;;;;;;7.40;2.70;;;28.60;56.80;;;;;;5078190;28;20016;-48
2022/05/16 08:41:59;;;;;;;4.32;2.00;;;30.60;47.10;;;;;;5069351;28;20077;-46
2022/05/16 08:44:35;;;;;;;5.45;2.05;;;31.40;48.00;;;;;;5079435;28;20070;-44
2022/05/16 08:47:27;;;;;;;7.10;2.38;;;31.60;47.50;;;;;;5086187;28;20408;-46
2022/05/16 08:49:55;;;;;;;6.75;2.00;;;33.50;43.60;;;;;;5071497;28;20035;-44
2022/05/16 08:52:44;;;;;;;4.85;1.90;;;34.10;41.80;;;;;;5069500;28;20025;-45
2022/05/16 08:55:28;;;;;;;5.20;1.85;;;33.30;41.50;;;;;;5078002;28;20503;-45
2022/05/16 08:58:13;;;;;;;3.47;2.15;;;33.80;40.10;;;;;;5065923;28;20028;-45
2022/05/16 09:00:52;;;;;;;4.25;2.08;;;35.20;40.10;;;;;;5064173;28;20028;-46
2022/05/16 09:03:23;;;;;;;9.32;2.42;;;35.40;39.70;;;;;;5061822;28;20073;-46
2022/05/16 09:06:11;;;;;;;4.38;1.75;;;35.00;39.90;;;;;;5069216;28;20035;-47
2022/05/16 09:08:58;;;;;;;5.67;2.20;;;35.80;39.30;;;;;;5060937;28;20029;-46
2022/05/16 09:11:55;;;;;;;4.97;1.60;;;37.00;37.60;;;;;;5063327;28;20554;-45
2022/05/16 09:14:44;;;;;;;5.90;2.00;;;36.40;36.10;;;;;;5072559;28;20707;-44
2022/05/16 09:17:18;;;;;;;7.63;1.92;;;37.00;35.90;;;;;;5063418;28;20093;-45
2022/05/16 09:20:14;;;;;;;4.00;1.70;;;37.20;35.50;;;;;;5072937;28;20017;-45
2022/05/16 09:22:51;;;;;;;6.75;2.08;;;37.40;35.70;;;;;;5064813;28;20032;-48
2022/05/16 09:25:21;;;;;;;3.95;1.48;;;37.00;35.80;;;;;;5064666;28;20641;-45
2022/05/16 09:30:36;;;;;;;7.38;1.92;;;36.50;35.00;;;;;;5063178;28;19965;-44
2022/05/16 09:33:11;;;;;;;9.90;2.30;;;36.90;34.70;;;;;;5066671;28;20020;-45
2022/05/16 09:35:37;;;;;;;6.80;2.20;;;36.40;34.30;;;;;;5057772;28;20041;-45
2022/05/16 09:38:03;;;;;;;4.75;2.13;;;36.70;34.90;;;;;;5063292;28;20021;-46
2022/05/16 09:40:38;;;;;;;4.82;2.00;;;36.80;35.30;;;;;;5068033;28;20579;-46
2022/05/16 09:43:24;;;;;;;8.48;1.65;;;37.00;35.90;;;;;;5060632;28;20025;-45
2022/05/16 09:45:58;;;;;;;4.40;1.70;;;37.60;35.00;;;;;;5062195;28;20039;-44
2022/05/16 09:48:24;;;;;;;4.95;1.90;;;38.00;33.70;;;;;;5066648;28;20017;-46
2022/05/16 09:51:00;;;;;;;4.45;2.00;;;38.30;33.80;;;;;;5070573;28;20059;-48
2022/05/16 09:53:30;;;;;;;4.57;1.70;;;37.90;34.10;;;;;;5066263;28;20513;-47
2022/05/16 09:56:03;;;;;;;4.88;2.00;;;37.30;33.80;;;;;;5064839;28;20118;-45
2022/05/16 09:58:35;;;;;;;4.85;2.20;;;37.80;34.10;;;;;;5067397;28;20114;-47
2022/05/16 10:01:05;;;;;;;5.82;2.15;;;37.80;34.00;;;;;;5065122;28;20218;-47
2022/05/16 10:03:42;;;;;;;;;;;38.10;34.10;;;;;;5063933;28;20487;-46
2022/05/16 10:06:10;;;;;;;7.07;2.05;;;38.40;34.10;;;;;;5061038;28;19915;-45
2022/05/16 10:08:38;;;;;;;7.38;2.20;;;38.10;33.90;;;;;;5066114;28;20032;-48
2022/05/16 10:11:16;;;;;;;3.72;1.55;;;38.10;34.80;;;;;;5061893;28;20470;-45
2022/05/16 10:13:42;;;;;;;4.32;2.22;;;37.80;34.30;;;;;;5080964;28;20012;-41
2022/05/16 10:16:09;;;;;;;7.78;2.33;;;37.70;34.80;;;;;;5084118;28;20548;-39
2022/05/16 10:18:57;;;;;;;5.43;2.30;;;38.20;33.80;;;;;;5071021;28;20013;-39
2022/05/16 10:21:36;;;;;;;5.68;2.45;;;37.40;33.40;;;;;;5068652;28;20052;-39
2022/05/16 10:24:08;;;;;;;5.23;2.10;;;37.80;34.20;;;;;;5083643;28;20381;-39
2022/05/16 10:26:39;;;;;;;3.67;2.28;;;37.80;34.80;;;;;;5090914;28;20073;-40
2022/05/16 10:29:09;;;;;;;4.70;2.20;;;38.40;35.00;;;;;;5089154;28;20496;-40
2022/05/16 10:34:38;;;;;;;5.13;2.33;;;38.40;34.30;;;;;;5080470;28;20654;-39
2022/05/16 10:37:05;;;;;;;8.23;2.17;;;38.20;34.20;;;;;;5083716;28;20116;-39
2022/05/16 10:39:32;;;;;;;4.72;2.38;;;38.60;33.70;;;;;;5083966;28;20464;-38
2022/05/16 10:42:21;;;;;;;5.45;2.10;;;39.10;33.30;;;;;;5070410;28;20036;-39
2022/05/16 10:44:52;;;;;;;6.28;2.20;;;39.40;33.70;;;;;;5069334;28;20028;-39
2022/05/16 10:47:55;;;;;;;5.38;2.50;;;39.20;33.40;;;;;;5076790;28;20031;-39
2022/05/16 10:50:23;;;;;;;3.90;2.47;;;39.20;33.50;;;;;;5089605;28;20032;-39
2022/05/16 10:53:09;;;;;;;11.77;2.25;;;39.50;33.50;;;;;;5084648;28;20031;-39
2022/05/16 10:55:50;;;;;;;6.47;2.38;;;39.50;33.00;;;;;;5066112;28;20569;-39
2022/05/16 10:58:27;;;;;;;6.90;2.13;;;38.90;34.00;;;;;;5083461;28;20504;-40
2022/05/16 11:01:18;;;;;;;3.15;2.17;;;38.60;33.70;;;;;;5085801;28;20024;-39
2022/05/16 11:03:57;;;;;;;5.15;2.13;;;38.70;34.90;;;;;;5087635;28;20032;-39
2022/05/16 11:06:40;;;;;;;6.60;2.53;;;39.20;34.70;;;;;;5076326;28;20055;-40
2022/05/16 11:09:30;;;;;;;4.88;2.05;;;39.60;34.10;;;;;;5074454;28;20043;-39
2022/05/16 11:12:25;;;;;;;6.47;2.13;;;39.30;33.20;;;;;;5063116;28;20035;-39
2022/05/16 11:15:12;;;;;;;7.28;2.20;;;39.50;33.60;;;;;;5079065;28;20020;-40
2022/05/16 11:17:58;;;;;;;4.80;2.38;;;39.90;33.00;;;;;;5090092;28;20020;-39
2022/05/16 11:20:35;;;;;;;7.75;2.47;;;39.80;32.90;;;;;;5079203;28;20098;-39
2022/05/16 11:23:19;;;;;;;6.75;2.50;;;39.60;33.50;;;;;;5082020;28;20122;-40
2022/05/16 11:25:48;;;;;;;9.27;2.25;;;39.20;33.60;;;;;;5074772;28;20032;-40
2022/05/16 11:28:33;;;;;;;5.38;2.45;;;38.50;33.60;;;;;;5082334;28;20035;-41
2022/05/16 11:31:08;;;;;;;7.68;2.70;;;37.60;34.10;;;;;;5086174;28;20048;-39
2022/05/16 11:33:53;;;;;;;4.45;2.22;;;38.20;34.40;;;;;;5070358;28;20604;-39
2022/05/16 11:36:32;;;;;;;7.57;2.47;;;38.60;33.80;;;;;;5070879;28;20632;-40
2022/05/16 11:39:05;;;;;;;5.82;2.22;;;37.90;34.60;;;;;;5064580;28;20029;-39
2022/05/16 11:41:45;;;;;;;7.47;2.35;;;38.10;34.60;;;;;;5049965;28;20083;-39
2022/05/16 11:44:21;;;;;;;6.28;2.30;;;38.80;34.40;;;;;;5078667;28;20028;-38
2022/05/16 11:47:19;;;;;;;6.32;2.05;;;39.00;34.20;;;;;;5082351;28;20111;-39
2022/05/16 11:49:57;;;;;;;6.70;2.63;;;38.90;33.80;;;;;;5089431;28;20036;-39
2022/05/16 11:52:47;;;;;;;6.28;2.55;;;38.50;34.20;;;;;;5083769;28;20025;-39
2022/05/16 12:01:00;;;;;;;4.85;2.28;;;36.90;35.30;;;;;;5068877;28;20230;-44
2022/05/16 12:03:40;;;;;;;7.18;2.45;;;35.40;36.40;;;;;;5048123;28;20256;-38
2022/05/16 12:06:35;;;;;;;6.82;2.75;;;34.20;37.50;;;;;;5078690;28;20056;-38
2022/05/16 12:09:16;;;;;;;4.57;2.28;;;33.50;39.50;;;;;;5071122;28;20033;-38
2022/05/16 12:12:01;;;;;;;6.57;2.88;;;33.00;39.80;;;;;;5055318;28;20513;-38
2022/05/16 12:14:34;;;;;;;5.90;2.75;;;32.60;39.90;;;;;;5059298;28;20460;-38
2022/05/16 12:17:17;;;;;;;8.75;2.95;;;31.90;40.50;;;;;;5060747;28;20027;-38
2022/05/16 12:19:48;;;;;;;5.28;2.85;;;31.80;40.60;;;;;;5057874;28;20024;-38
2022/05/16 12:22:22;;;;;;;9.18;3.15;;;31.60;41.30;;;;;;5056154;28;20098;-38
2022/05/16 12:24:53;;;;;;;6.10;2.85;;;31.30;41.10;;;;;;5056264;28;20525;-38
2022/05/16 12:27:35;;;;;;;5.03;2.55;;;30.50;41.80;;;;;;5058146;28;20047;-38
2022/05/16 12:30:06;;;;;;;12.05;2.90;;;30.80;42.10;;;;;;5060076;28;20070;-38
2022/05/16 12:32:31;;;;;;;6.75;2.72;;;31.00;43.20;;;;;;5066298;28;20069;-44
2022/05/16 12:35:04;;;;;;;9.65;3.15;;;30.50;42.60;;;;;;5061356;28;20025;-44
2022/05/16 12:37:33;;;;;;;10.50;3.50;;;30.50;42.80;;;;;;5060777;28;20482;-44
2022/05/16 12:40:17;;;;;;;7.22;3.13;;;30.60;43.60;;;;;;5060741;28;20029;-46
2022/05/16 12:43:01;;;;;;;6.45;3.38;;;30.60;43.00;;;;;;5067225;28;20351;-46
2022/05/16 12:45:53;;;;;;;9.45;2.80;;;30.80;43.40;;;;;;5061327;28;20479;-43
2022/05/16 12:48:21;;;;;;;7.40;2.65;;;30.90;43.70;;;;;;5059972;28;20419;-44
2022/05/16 12:51:11;;;;;;;4.40;2.28;;;30.80;43.10;;;;;;5067160;28;20025;-44
2022/05/16 12:54:14;;;;;;;7.82;3.00;;;30.70;43.00;;;;;;5059087;28;20047;-45
2022/05/16 12:56:42;;;;;;;8.52;2.70;;;30.50;43.20;;;;;;5062026;28;20115;-46
2022/05/16 12:59:23;;;;;;;6.20;2.80;;;30.20;43.30;;;;;;5062975;28;20064;-45
2022/05/16 13:02:13;;;;;;;5.13;2.65;;;30.00;44.40;;;;;;5061238;28;20021;-44
2022/05/16 13:04:50;;;;;;;3.72;2.50;;;29.90;44.00;;;;;;5065766;28;20028;-43
2022/05/16 13:07:32;;;;;;;4.90;2.60;;;29.90;44.90;;;;;;5066168;28;20032;-44
2022/05/16 13:10:23;;;;;;;12.68;3.10;;;29.70;44.90;;;;;;5060695;28;20093;-44
2022/05/16 13:13:13;;;;;;;4.50;2.75;;;29.70;44.50;;;;;;5063028;28;20025;-46
2022/05/16 13:15:52;;;;;;;9.48;3.50;;;29.50;45.10;;;;;;5065439;28;20020;-44
2022/05/16 13:18:26;;;;;;;5.68;3.08;;;29.40;45.10;;;;;;5066109;28;20474;-44
2022/05/16 13:20:56;;;;;;;11.20;3.30;;;29.40;45.40;;;;;;5063636;28;20095;-43
2022/05/16 13:23:22;;;;;;;7.07;2.92;;;29.20;45.70;;;;;;5059138;28;20032;-44
2022/05/16 13:31:33;;;;;;;5.43;3.05;;;29.10;46.50;;;;;;5075497;28;20108;-45
2022/05/16 13:34:00;;;;;;;4.38;2.95;;;29.00;46.90;;;;;;5064954;28;20517;-46
2022/05/16 13:36:26;;;;;;;5.90;2.90;;;29.20;46.30;;;;;;5058654;28;20107;-45
2022/05/16 13:38:57;;;;;;;8.43;3.30;;;29.20;46.30;;;;;;5061555;28;20394;-45
2022/05/16 13:41:29;;;;;;;8.00;3.72;;;29.10;46.20;;;;;;5063303;28;20013;-46
2022/05/16 13:43:55;;;;;;;6.47;2.75;;;29.00;46.60;;;;;;5063500;28;20032;-45
2022/05/16 13:46:22;;;;;;;8.35;3.15;;;29.10;46.60;;;;;;5061506;28;20099;-45